Time;durP1;ratioP1;P1;durP2;ratioP2;P2;SDS_P1;SDS_P2;PMS_P1;PMS_P2;Temp;Humidity;BMP_temperature;BMP_pressure;BME280_temperature;BME280_humidity;BME280_pressure;Samples;Min_cycle;Max_cycle;Signal;HPM_P1;HPM_P2
2024/03/23 00:01:41;;;;;;;25.10;5.82;;;7.70;99.90;;;;;;4897350;29;20755;-78
2024/03/23 00:04:08;;;;;;;28.33;6.38;;;7.80;99.90;;;;;;4882187;29;20045;-77
2024/03/23 00:06:34;;;;;;;32.63;6.47;;;7.70;99.90;;;;;;4898246;29;20049;-77
2024/03/23 00:09:01;;;;;;;27.17;6.30;;;7.60;99.90;;;;;;4897528;29;20066;-78
2024/03/23 00:11:27;;;;;;;28.83;5.70;;;7.60;99.90;;;;;;4896416;29;20060;-78
2024/03/23 00:13:54;;;;;;;29.73;7.03;;;7.60;99.90;;;;;;4893459;29;20040;-77
2024/03/23 00:16:21;;;;;;;30.38;6.55;;;7.60;99.90;;;;;;4890616;29;20056;-77
2024/03/23 00:18:48;;;;;;;28.98;5.60;;;7.60;99.90;;;;;;4900044;29;20529;-77
2024/03/23 00:21:15;;;;;;;31.02;6.82;;;7.60;99.90;;;;;;4899494;29;20044;-77
2024/03/23 00:23:41;;;;;;;25.90;5.80;;;7.60;99.90;;;;;;4896811;29;20044;-78
2024/03/23 00:26:08;;;;;;;27.10;5.35;;;7.60;99.90;;;;;;4881472;29;20052;-78
2024/03/23 00:28:34;;;;;;;31.27;5.72;;;7.60;99.90;;;;;;4892361;29;20049;-77
2024/03/23 00:31:01;;;;;;;26.90;6.53;;;7.60;99.90;;;;;;4881171;29;20055;-77
2024/03/23 00:33:28;;;;;;;27.23;6.03;;;7.60;99.90;;;;;;4896593;29;20478;-77
2024/03/23 00:35:54;;;;;;;28.83;6.05;;;7.60;99.90;;;;;;4897371;29;20048;-77
2024/03/23 00:38:22;;;;;;;29.65;6.40;;;7.60;99.90;;;;;;4896427;29;20042;-78
2024/03/23 00:40:48;;;;;;;29.05;5.80;;;7.60;99.90;;;;;;4896453;29;20044;-77
2024/03/23 00:43:15;;;;;;;23.55;5.95;;;7.70;99.90;;;;;;4897204;29;20056;-78
2024/03/23 00:45:41;;;;;;;32.00;6.57;;;7.50;99.90;;;;;;4894043;29;20053;-78
2024/03/23 00:48:08;;;;;;;27.55;5.68;;;7.50;99.90;;;;;;4872645;29;20495;-77
2024/03/23 00:50:35;;;;;;;37.72;6.78;;;7.50;99.90;;;;;;4887234;29;20056;-77
2024/03/23 00:53:02;;;;;;;33.97;6.85;;;7.50;99.90;;;;;;4888974;29;20059;-77
2024/03/23 00:55:28;;;;;;;35.53;5.75;;;7.40;99.90;;;;;;4897965;29;20048;-78
2024/03/23 00:57:53;;;;;;;19.75;5.43;;;7.60;99.90;;;;;;4896451;29;20579;-77
2024/03/23 01:00:19;;;;;;;23.10;5.63;;;7.40;99.90;;;;;;4890802;29;20041;-77
2024/03/23 01:02:44;;;;;;;33.83;6.53;;;7.50;99.90;;;;;;4895128;29;20056;-77
2024/03/23 01:05:10;;;;;;;33.15;6.60;;;7.40;99.90;;;;;;4895872;29;20076;-77
2024/03/23 01:07:36;;;;;;;20.60;5.00;;;7.40;99.90;;;;;;4897570;29;20040;-77
2024/03/23 01:10:01;;;;;;;22.17;5.90;;;7.30;99.90;;;;;;4895100;29;20044;-77
2024/03/23 01:12:27;;;;;;;28.05;5.78;;;7.30;99.90;;;;;;4893058;29;20044;-77
2024/03/23 01:14:53;;;;;;;30.02;6.20;;;7.50;99.90;;;;;;4895204;29;20131;-77
2024/03/23 01:17:18;;;;;;;27.75;6.45;;;7.50;99.90;;;;;;4891422;29;20453;-77
2024/03/23 01:19:44;;;;;;;22.02;5.70;;;7.60;99.90;;;;;;4877056;29;20076;-77
2024/03/23 01:22:09;;;;;;;30.75;5.80;;;7.30;99.90;;;;;;4896490;29;20045;-77
2024/03/23 01:24:35;;;;;;;25.55;5.70;;;7.20;99.90;;;;;;4895153;29;20064;-77
2024/03/23 01:27:01;;;;;;;28.55;6.30;;;7.20;99.90;;;;;;4890891;29;20052;-77
2024/03/23 01:29:27;;;;;;;22.65;5.97;;;7.20;99.90;;;;;;4893693;29;22197;-77
2024/03/23 01:31:52;;;;;;;24.30;5.05;;;7.20;99.90;;;;;;4897984;29;20447;-77
2024/03/23 01:34:19;;;;;;;27.48;5.45;;;7.20;99.90;;;;;;4894667;29;20060;-77
2024/03/23 01:36:46;;;;;;;22.83;4.95;;;7.20;99.90;;;;;;4893881;29;20045;-77
2024/03/23 01:39:12;;;;;;;22.70;6.47;;;7.50;99.90;;;;;;4894243;29;20048;-77
2024/03/23 01:41:39;;;;;;;25.25;5.78;;;7.00;99.90;;;;;;4890936;29;20384;-77
2024/03/23 01:44:09;;;;;;;23.92;5.95;;;7.40;99.90;;;;;;4894739;29;20049;-77
2024/03/23 01:46:38;;;;;;;24.55;5.78;;;7.00;99.90;;;;;;4895315;29;20131;-77
2024/03/23 01:49:05;;;;;;;20.65;5.53;;;7.00;99.90;;;;;;4877624;29;20048;-78
2024/03/23 01:51:32;;;;;;;28.95;6.13;;;6.90;99.90;;;;;;4886435;29;20522;-78
2024/03/23 01:54:00;;;;;;;29.27;6.75;;;6.90;99.90;;;;;;4894404;29;20196;-78
2024/03/23 01:56:26;;;;;;;20.08;5.75;;;6.90;99.90;;;;;;4894267;29;20049;-78
2024/03/23 01:58:52;;;;;;;24.90;5.40;;;6.80;99.90;;;;;;4894770;29;20048;-77
2024/03/23 02:01:17;;;;;;;22.55;5.28;;;6.80;99.90;;;;;;4878900;29;20041;-76
2024/03/23 02:03:43;;;;;;;23.83;5.60;;;6.80;99.90;;;;;;4896934;29;20419;-77
2024/03/23 02:06:09;;;;;;;22.17;5.53;;;6.70;99.90;;;;;;4899489;29;20089;-77
2024/03/23 02:08:34;;;;;;;22.98;5.32;;;6.70;99.90;;;;;;4892517;29;20049;-78
2024/03/23 02:11:00;;;;;;;21.52;5.70;;;6.60;99.90;;;;;;4882005;29;20091;-78
2024/03/23 02:13:26;;;;;;;19.48;4.82;;;6.60;99.90;;;;;;4897347;29;20041;-78
2024/03/23 02:15:52;;;;;;;24.88;5.25;;;6.60;99.90;;;;;;4897377;29;20096;-77
2024/03/23 02:18:18;;;;;;;21.13;5.50;;;6.60;99.90;;;;;;4896279;29;20048;-77
2024/03/23 02:20:43;;;;;;;24.02;5.05;;;6.60;99.90;;;;;;4897511;29;20119;-78
2024/03/23 02:23:17;;;;;;;26.40;5.20;;;6.60;99.90;;;;;;4898216;29;20464;-78
2024/03/23 02:25:43;;;;;;;18.85;5.13;;;6.50;99.90;;;;;;4889766;29;20072;-78
2024/03/23 02:28:09;;;;;;;25.98;5.45;;;6.50;99.90;;;;;;4879961;29;20099;-78
2024/03/23 02:30:35;;;;;;;20.10;5.03;;;6.50;99.90;;;;;;4897422;29;20041;-78
2024/03/23 02:33:00;;;;;;;;;;;6.50;99.90;;;;;;4898478;29;20069;-78
2024/03/23 02:35:26;;;;;;;21.20;5.30;;;6.40;99.90;;;;;;4897689;29;20017;-78
2024/03/23 02:37:52;;;;;;;25.45;4.85;;;6.40;99.90;;;;;;4896110;29;20047;-77
2024/03/23 02:40:20;;;;;;;27.20;5.22;;;6.40;99.90;;;;;;4897755;29;20053;-78
2024/03/23 02:42:45;;;;;;;29.00;5.60;;;6.30;99.90;;;;;;4897395;29;20045;-78
2024/03/23 02:45:11;;;;;;;25.35;5.72;;;6.30;99.90;;;;;;4881806;29;20044;-78
2024/03/23 02:47:37;;;;;;;22.08;5.20;;;6.30;99.90;;;;;;4898188;29;20123;-77
2024/03/23 02:50:04;;;;;;;21.35;5.93;;;6.20;99.90;;;;;;4893217;29;20439;-78
2024/03/23 02:52:30;;;;;;;22.63;5.10;;;6.20;99.90;;;;;;4899308;29;20084;-78
2024/03/23 02:54:55;;;;;;;23.40;5.07;;;6.70;99.90;;;;;;4900933;29;20037;-77
2024/03/23 02:57:21;;;;;;;21.58;5.70;;;6.20;99.90;;;;;;4902089;29;20500;-77
2024/03/23 02:59:46;;;;;;;26.88;5.65;;;6.10;99.90;;;;;;4900370;29;20036;-78
2024/03/23 03:02:13;;;;;;;22.08;5.43;;;6.10;99.90;;;;;;4896004;29;20118;-78
2024/03/23 03:04:39;;;;;;;24.77;5.10;;;6.10;99.90;;;;;;4901312;29;20044;-78
2024/03/23 03:07:05;;;;;;;22.40;5.85;;;6.10;99.90;;;;;;4894104;29;20189;-77
2024/03/23 03:09:30;;;;;;;25.85;5.60;;;6.00;99.90;;;;;;4898627;29;20772;-78
2024/03/23 03:11:56;;;;;;;24.67;5.32;;;6.00;99.90;;;;;;4901445;29;20074;-78
2024/03/23 03:14:22;;;;;;;22.58;5.28;;;6.10;99.90;;;;;;4901210;29;20040;-77
2024/03/23 03:16:48;;;;;;;22.40;5.05;;;6.00;99.90;;;;;;4901448;29;20045;-78
2024/03/23 03:19:13;;;;;;;21.20;5.05;;;6.00;99.90;;;;;;4900737;29;20635;-78
2024/03/23 03:21:39;;;;;;;31.77;5.93;;;5.90;99.90;;;;;;4901246;29;20128;-77
2024/03/23 03:24:06;;;;;;;25.80;6.05;;;5.90;99.90;;;;;;4900480;29;20471;-78
2024/03/23 03:26:32;;;;;;;26.55;6.40;;;5.90;99.90;;;;;;4896920;29;20052;-78
2024/03/23 03:28:57;;;;;;;20.88;5.75;;;5.90;99.90;;;;;;4899792;29;20056;-77
2024/03/23 03:31:23;;;;;;;24.23;5.60;;;5.90;99.90;;;;;;4899604;29;20052;-77
2024/03/23 03:33:53;;;;;;;22.65;5.82;;;5.90;99.90;;;;;;4899936;29;20435;-78
2024/03/23 03:36:19;;;;;;;20.55;5.30;;;5.80;99.90;;;;;;4900200;29;20104;-78
2024/03/23 03:38:45;;;;;;;26.77;5.22;;;5.80;99.90;;;;;;4899912;29;20048;-77
2024/03/23 03:41:11;;;;;;;25.40;5.45;;;5.80;99.90;;;;;;4899899;29;20038;-78
2024/03/23 03:43:36;;;;;;;26.95;5.55;;;5.80;99.90;;;;;;4899919;29;20056;-77
2024/03/23 03:46:02;;;;;;;19.40;5.22;;;5.80;99.90;;;;;;4899357;29;20048;-77
2024/03/23 03:48:28;;;;;;;21.40;5.32;;;5.80;99.90;;;;;;4899588;29;20048;-77
2024/03/23 03:50:54;;;;;;;16.73;4.53;;;5.80;99.90;;;;;;4893311;29;20048;-77
2024/03/23 03:53:20;;;;;;;23.85;5.15;;;5.70;99.90;;;;;;4900970;29;20153;-77
2024/03/23 03:55:45;;;;;;;22.23;4.95;;;5.70;99.90;;;;;;4897919;29;20048;-78
2024/03/23 03:58:11;;;;;;;21.20;5.00;;;5.70;99.90;;;;;;4899275;29;20040;-78
2024/03/23 04:00:36;;;;;;;19.30;5.40;;;5.70;99.90;;;;;;4899035;29;20044;-77
2024/03/23 04:03:02;;;;;;;19.48;5.18;;;5.70;99.90;;;;;;4898087;29;20041;-77
2024/03/23 04:05:28;;;;;;;23.20;5.32;;;5.70;99.90;;;;;;4899941;29;20131;-78
2024/03/23 04:07:54;;;;;;;26.58;5.53;;;5.70;99.90;;;;;;4899009;29;20049;-78
2024/03/23 04:10:20;;;;;;;19.27;4.75;;;5.70;99.90;;;;;;4933001;23;20135;-78
2024/03/23 04:12:46;;;;;;;17.25;5.07;;;5.60;99.90;;;;;;4927102;29;20502;-78
2024/03/23 04:15:13;;;;;;;15.45;4.70;;;5.60;99.90;;;;;;4898832;29;20053;-78
2024/03/23 04:17:38;;;;;;;25.35;5.55;;;5.60;99.90;;;;;;4899540;29;20090;-78
2024/03/23 04:20:08;;;;;;;22.13;4.97;;;5.60;99.90;;;;;;4894028;29;20068;-79
2024/03/23 04:22:34;;;;;;;26.45;5.15;;;5.50;99.90;;;;;;4899173;29;20083;-79
2024/03/23 04:25:03;;;;;;;29.63;5.57;;;5.50;99.90;;;;;;4900012;29;20080;-79
2024/03/23 04:27:29;;;;;;;18.52;4.28;;;5.50;99.90;;;;;;4897124;29;20127;-78
2024/03/23 04:29:54;;;;;;;23.25;4.53;;;5.50;99.90;;;;;;4899194;29;20551;-79
2024/03/23 04:32:20;;;;;;;20.92;4.82;;;5.50;99.90;;;;;;4897918;29;20044;-79
2024/03/23 04:34:45;;;;;;;21.83;4.88;;;5.50;99.90;;;;;;4899036;29;20040;-79
2024/03/23 04:37:11;;;;;;;17.40;5.15;;;5.40;99.90;;;;;;4929520;29;20041;-79
2024/03/23 04:39:38;;;;;;;18.38;4.97;;;5.40;99.90;;;;;;4903230;29;20479;-78
2024/03/23 04:42:04;;;;;;;13.50;4.25;;;5.40;99.90;;;;;;4898266;29;20506;-79
2024/03/23 04:44:30;;;;;;;24.15;4.68;;;5.40;99.90;;;;;;4897302;29;20751;-79
2024/03/23 04:46:57;;;;;;;19.67;4.10;;;5.40;99.90;;;;;;4897342;29;20056;-79
2024/03/23 04:49:22;;;;;;;22.20;5.15;;;5.40;99.90;;;;;;4897867;29;20040;-79
2024/03/23 04:51:48;;;;;;;20.50;4.30;;;5.40;99.90;;;;;;4898881;29;20041;-79
2024/03/23 04:54:14;;;;;;;21.38;4.85;;;5.40;99.90;;;;;;4897573;29;20047;-79
2024/03/23 04:56:40;;;;;;;17.55;4.43;;;5.40;99.90;;;;;;4896669;29;20107;-78
2024/03/23 04:59:05;;;;;;;22.30;4.75;;;5.40;99.90;;;;;;4896943;29;20036;-79
2024/03/23 05:01:34;;;;;;;15.88;3.92;;;5.40;99.90;;;;;;4896613;29;20053;-79
2024/03/23 05:04:00;;;;;;;17.42;4.10;;;5.30;99.90;;;;;;4896059;29;20097;-78
2024/03/23 05:06:25;;;;;;;16.92;3.95;;;5.30;99.90;;;;;;4896085;29;20053;-79
2024/03/23 05:08:51;;;;;;;16.25;4.20;;;5.30;99.90;;;;;;4891572;29;20143;-79
2024/03/23 05:11:17;;;;;;;18.95;3.90;;;5.30;99.90;;;;;;4896275;29;20040;-79
2024/03/23 05:13:44;;;;;;;22.48;4.43;;;5.20;99.90;;;;;;4927489;29;20067;-79
2024/03/23 05:16:09;;;;;;;19.90;4.03;;;5.20;99.90;;;;;;4899304;29;20086;-80
2024/03/23 05:18:35;;;;;;;20.67;4.03;;;5.20;99.90;;;;;;4897681;29;20036;-79
2024/03/23 05:21:01;;;;;;;18.33;3.92;;;5.20;99.90;;;;;;4928230;29;20459;-79
2024/03/23 05:23:28;;;;;;;20.02;3.83;;;5.30;99.90;;;;;;4901427;29;20048;-79
2024/03/23 05:25:54;;;;;;;15.75;4.18;;;5.20;99.90;;;;;;4897216;29;20315;-80
2024/03/23 05:28:21;;;;;;;15.88;3.65;;;5.20;99.90;;;;;;4897486;29;20056;-79
2024/03/23 05:30:53;;;;;;;17.67;3.55;;;5.20;99.90;;;;;;4897330;29;20107;-79
2024/03/23 05:33:20;;;;;;;15.98;4.15;;;5.10;99.90;;;;;;4897292;29;20075;-79
2024/03/23 05:35:47;;;;;;;18.98;3.97;;;5.10;99.90;;;;;;4892767;29;20037;-79
2024/03/23 05:38:13;;;;;;;15.00;3.75;;;5.10;99.90;;;;;;4904224;29;20476;-79
2024/03/23 05:40:40;;;;;;;24.75;4.30;;;5.10;99.90;;;;;;4894215;29;20476;-78
2024/03/23 05:43:06;;;;;;;22.77;4.35;;;5.10;99.90;;;;;;4893496;29;20041;-79
2024/03/23 05:45:32;;;;;;;19.20;4.22;;;5.20;99.90;;;;;;4928135;29;20049;-79
2024/03/23 05:47:58;;;;;;;19.85;4.40;;;5.10;99.90;;;;;;4890775;29;20048;-79
2024/03/23 05:50:24;;;;;;;20.60;4.13;;;5.30;99.90;;;;;;4896616;29;20040;-79
2024/03/23 05:52:50;;;;;;;15.65;3.30;;;5.10;99.90;;;;;;4896195;29;20400;-78
2024/03/23 05:55:16;;;;;;;18.20;4.20;;;5.10;99.90;;;;;;4927946;29;20040;-79
2024/03/23 05:57:41;;;;;;;20.20;3.85;;;5.10;99.90;;;;;;4897094;29;20109;-79
2024/03/23 06:00:16;;;;;;;15.32;3.70;;;5.10;99.90;;;;;;4911375;29;20127;-78
2024/03/23 06:02:44;;;;;;;15.85;3.63;;;5.10;99.90;;;;;;4928019;29;20136;-78
2024/03/23 06:05:11;;;;;;;20.00;4.55;;;5.20;99.90;;;;;;4895982;29;20048;-79
2024/03/23 06:07:37;;;;;;;13.88;3.92;;;5.20;99.90;;;;;;4895861;29;20119;-79
2024/03/23 06:10:03;;;;;;;14.50;3.85;;;5.30;99.90;;;;;;4895696;29;20539;-79
2024/03/23 06:12:29;;;;;;;20.50;3.85;;;5.40;99.90;;;;;;4895950;29;20045;-79
2024/03/23 06:14:54;;;;;;;16.67;4.28;;;5.50;99.90;;;;;;4892335;29;20116;-80
2024/03/23 06:17:20;;;;;;;18.10;3.75;;;5.60;99.90;;;;;;4895454;29;20048;-79
2024/03/23 06:19:46;;;;;;;19.50;3.67;;;5.70;99.90;;;;;;4896871;29;20507;-79
2024/03/23 06:22:11;;;;;;;16.33;3.50;;;5.60;99.90;;;;;;4895770;29;20048;-79
2024/03/23 06:24:37;;;;;;;20.77;4.10;;;5.70;99.90;;;;;;4896310;29;20052;-79
2024/03/23 06:27:03;;;;;;;17.23;3.80;;;6.90;99.90;;;;;;4930179;29;20045;-79
2024/03/23 06:29:28;;;;;;;17.95;3.22;;;5.70;99.90;;;;;;4898620;29;20096;-78
2024/03/23 06:31:55;;;;;;;16.25;3.40;;;5.70;99.90;;;;;;4924855;29;20124;-78
2024/03/23 06:34:22;;;;;;;14.98;3.30;;;5.60;99.90;;;;;;4925443;29;20547;-79
2024/03/23 06:36:49;;;;;;;15.45;2.90;;;5.60;99.90;;;;;;4927964;29;20048;-79
2024/03/23 06:39:15;;;;;;;15.63;3.15;;;5.60;99.90;;;;;;4892842;29;20096;-78
2024/03/23 06:41:52;;;;;;;13.45;3.40;;;5.50;99.90;;;;;;4900795;29;20051;-79
2024/03/23 06:44:18;;;;;;;13.77;3.13;;;5.50;99.90;;;;;;4898361;29;20522;-79
2024/03/23 06:46:44;;;;;;;14.82;3.90;;;5.50;99.90;;;;;;4897892;29;20059;-79
2024/03/23 06:49:10;;;;;;;19.05;3.40;;;5.50;99.90;;;;;;4894270;29;20037;-79
2024/03/23 06:51:35;;;;;;;15.40;3.92;;;5.50;99.90;;;;;;4929677;29;20381;-79
2024/03/23 06:54:03;;;;;;;17.45;4.20;;;5.50;99.90;;;;;;4883022;29;20423;-78
2024/03/23 06:56:29;;;;;;;15.73;3.38;;;5.50;99.90;;;;;;4898007;29;20044;-78
2024/03/23 06:58:55;;;;;;;18.23;3.45;;;5.50;99.90;;;;;;4893701;29;20100;-78
2024/03/23 07:01:21;;;;;;;13.73;2.95;;;5.60;99.90;;;;;;4899576;29;20041;-79
2024/03/23 07:03:46;;;;;;;15.10;2.95;;;5.70;99.90;;;;;;4898271;29;20049;-79
2024/03/23 07:06:12;;;;;;;16.25;3.25;;;5.80;99.90;;;;;;4897492;29;20054;-79
2024/03/23 07:08:38;;;;;;;9.43;3.05;;;5.70;99.90;;;;;;4929822;29;20056;-79
2024/03/23 07:11:04;;;;;;;16.83;3.25;;;5.80;99.90;;;;;;4929686;29;20103;-78
2024/03/23 07:13:30;;;;;;;18.08;3.67;;;5.80;99.90;;;;;;4898511;29;20091;-81
2024/03/23 07:15:57;;;;;;;17.50;3.53;;;5.90;99.90;;;;;;4893804;29;20048;-78
2024/03/23 07:18:23;;;;;;;16.70;3.88;;;5.80;99.90;;;;;;4898186;29;20041;-78
2024/03/23 07:20:58;;;;;;;18.00;4.18;;;5.90;99.90;;;;;;4897103;29;20099;-78
2024/03/23 07:23:24;;;;;;;14.55;3.85;;;6.00;99.90;;;;;;4897123;29;20540;-78
2024/03/23 07:26:04;;;;;;;18.35;3.90;;;6.20;99.90;;;;;;4929553;29;20074;-78
2024/03/23 07:28:33;;;;;;;17.95;4.15;;;6.60;99.90;;;;;;4897345;29;20060;-78
2024/03/23 07:31:03;;;;;;;14.73;3.95;;;6.50;99.90;;;;;;4897577;29;20067;-78
2024/03/23 07:33:29;;;;;;;10.82;2.28;;;6.50;99.90;;;;;;4897172;29;20044;-78
2024/03/23 07:35:55;;;;;;;6.35;1.50;;;6.60;99.90;;;;;;4892971;29;20617;-77
2024/03/23 07:38:21;;;;;;;5.72;1.38;;;6.50;99.90;;;;;;4895671;29;20518;-78
2024/03/23 07:40:48;;;;;;;5.45;1.98;;;6.40;99.90;;;;;;4927444;29;20040;-79
2024/03/23 07:43:13;;;;;;;10.00;2.17;;;6.30;99.90;;;;;;4896607;29;20063;-78
2024/03/23 07:45:39;;;;;;;6.03;1.20;;;6.30;99.90;;;;;;4896926;29;20052;-79
2024/03/23 07:48:05;;;;;;;6.45;1.70;;;6.20;99.90;;;;;;4898302;29;20044;-78
2024/03/23 07:50:30;;;;;;;6.85;1.38;;;6.20;99.90;;;;;;4895060;29;20402;-76
2024/03/23 07:52:56;;;;;;;6.35;1.48;;;6.10;99.90;;;;;;4896967;29;20537;-79
2024/03/23 07:55:21;;;;;;;7.70;1.52;;;6.10;99.90;;;;;;4890141;29;20033;-78
2024/03/23 07:57:47;;;;;;;5.00;1.42;;;6.10;99.90;;;;;;4924109;29;20044;-79
2024/03/23 08:00:13;;;;;;;7.20;1.67;;;6.20;99.90;;;;;;4895446;29;20121;-78
2024/03/23 08:02:39;;;;;;;3.38;1.25;;;6.30;99.90;;;;;;4892446;29;20500;-80
2024/03/23 08:05:05;;;;;;;3.10;1.50;;;6.40;99.90;;;;;;4891821;29;20068;-80
2024/03/23 08:07:31;;;;;;;2.63;1.08;;;6.50;99.90;;;;;;4892177;29;20098;-80
2024/03/23 08:09:58;;;;;;;8.20;1.88;;;6.50;99.90;;;;;;4888597;29;20072;-78
2024/03/23 08:12:24;;;;;;;5.65;1.40;;;6.60;99.90;;;;;;4926581;29;20044;-77
2024/03/23 08:14:50;;;;;;;6.03;1.45;;;6.60;99.90;;;;;;4894989;29;20369;-78
2024/03/23 08:17:15;;;;;;;6.30;1.67;;;6.60;99.90;;;;;;4924032;29;20049;-77
2024/03/23 08:19:41;;;;;;;6.88;1.70;;;7.00;99.90;;;;;;4923499;29;20047;-78
2024/03/23 08:22:06;;;;;;;5.95;1.75;;;6.70;99.90;;;;;;4898970;29;20392;-76
2024/03/23 08:24:34;;;;;;;6.05;1.48;;;6.70;99.90;;;;;;4930829;29;20049;-78
2024/03/23 08:26:59;;;;;;;7.53;1.90;;;6.80;99.90;;;;;;4903396;29;20136;-78
2024/03/23 08:29:25;;;;;;;7.47;2.03;;;6.80;99.90;;;;;;4902216;29;20528;-79
2024/03/23 08:31:50;;;;;;;8.88;2.13;;;6.90;99.90;;;;;;4901501;29;20045;-80
2024/03/23 08:34:16;;;;;;;11.63;2.45;;;7.00;99.90;;;;;;4932685;29;20048;-79
2024/03/23 08:36:42;;;;;;;10.52;2.38;;;7.00;99.90;;;;;;4887433;29;20555;-78
2024/03/23 08:39:07;;;;;;;8.07;2.17;;;7.10;99.90;;;;;;4906486;29;20044;-78
2024/03/23 08:41:33;;;;;;;7.47;2.10;;;7.30;99.90;;;;;;4898095;29;20462;-78
2024/03/23 08:43:58;;;;;;;10.35;1.80;;;7.20;99.90;;;;;;4914026;29;20049;-78
2024/03/23 08:46:24;;;;;;;5.25;1.50;;;7.10;99.90;;;;;;4899838;29;20534;-77
2024/03/23 08:48:52;;;;;;;6.40;1.95;;;7.00;99.90;;;;;;4882312;29;20108;-78
2024/03/23 08:51:17;;;;;;;11.05;1.67;;;6.90;99.90;;;;;;4924746;29;20055;-78
2024/03/23 08:53:43;;;;;;;6.88;1.85;;;6.80;99.90;;;;;;4898780;29;20036;-80
2024/03/23 08:56:10;;;;;;;7.28;1.63;;;6.70;99.90;;;;;;4903400;29;20044;-78
2024/03/23 08:58:37;;;;;;;6.43;1.90;;;6.70;99.90;;;;;;4898675;29;21488;-77
2024/03/23 09:01:04;;;;;;;4.32;1.45;;;6.70;99.90;;;;;;4897852;29;20158;-77
2024/03/23 09:03:29;;;;;;;5.40;1.58;;;6.70;99.90;;;;;;4896410;29;20444;-79
2024/03/23 09:05:55;;;;;;;4.82;1.42;;;6.60;99.90;;;;;;4900998;29;20115;-79
2024/03/23 09:08:21;;;;;;;4.68;1.30;;;6.60;99.90;;;;;;4892519;29;20131;-77
2024/03/23 09:10:47;;;;;;;5.63;1.23;;;6.60;99.90;;;;;;4896435;29;20051;-77
2024/03/23 09:13:13;;;;;;;8.57;1.90;;;6.60;99.90;;;;;;4906503;29;20092;-77
2024/03/23 09:15:47;;;;;;;5.47;1.55;;;6.60;99.90;;;;;;4899651;29;20091;-77
2024/03/23 09:18:12;;;;;;;7.68;1.80;;;6.80;99.90;;;;;;4882765;29;20048;-78
2024/03/23 09:20:44;;;;;;;8.13;1.48;;;6.50;99.90;;;;;;5082778;27;20382;-72
2024/03/23 09:23:10;;;;;;;5.78;1.70;;;6.80;99.90;;;;;;5061678;28;20037;-72
2024/03/23 09:25:37;;;;;;;7.88;2.17;;;6.90;99.90;;;;;;5071331;28;20433;-72
2024/03/23 09:28:03;;;;;;;12.27;2.20;;;7.20;99.90;;;;;;5074771;28;20040;-72
2024/03/23 09:30:29;;;;;;;9.95;2.50;;;7.20;99.90;;;;;;5059179;28;20097;-72
2024/03/23 09:32:54;;;;;;;9.73;1.77;;;7.40;99.90;;;;;;5064417;28;20412;-72
2024/03/23 09:35:20;;;;;;;10.20;2.20;;;7.40;99.90;;;;;;5066988;28;20048;-72
2024/03/23 09:37:45;;;;;;;8.50;2.45;;;7.50;99.90;;;;;;5070934;28;20059;-73
2024/03/23 09:40:11;;;;;;;12.65;2.35;;;7.70;99.90;;;;;;5076258;28;20484;-72
2024/03/23 09:42:38;;;;;;;10.18;2.13;;;7.80;99.90;;;;;;5058630;28;20120;-72
2024/03/23 09:45:09;;;;;;;9.20;1.95;;;7.90;99.90;;;;;;5071985;28;20032;-73
2024/03/23 09:47:35;;;;;;;6.85;1.65;;;8.00;99.90;;;;;;5055653;28;20037;-73
2024/03/23 09:50:01;;;;;;;7.95;1.77;;;8.20;99.90;;;;;;5067693;28;20115;-73
2024/03/23 09:52:26;;;;;;;7.22;1.40;;;8.40;99.90;;;;;;5065577;28;20036;-73
2024/03/23 09:54:52;;;;;;;11.87;2.00;;;8.50;99.90;;;;;;5074841;28;20395;-73
2024/03/23 09:57:17;;;;;;;14.32;2.03;;;8.80;99.90;;;;;;5063429;28;20040;-73
2024/03/23 09:59:43;;;;;;;5.72;1.42;;;8.90;99.90;;;;;;5072447;28;20037;-73
2024/03/23 10:02:10;;;;;;;6.40;1.15;;;9.10;99.90;;;;;;5066768;28;20411;-73
2024/03/23 10:04:41;;;;;;;4.13;0.98;;;9.10;99.90;;;;;;5061398;28;20439;-74
2024/03/23 10:07:18;;;;;;;4.97;1.20;;;8.90;99.90;;;;;;5049082;28;20037;-73
2024/03/23 10:09:43;;;;;;;8.50;1.55;;;8.70;99.90;;;;;;5072477;22;20053;-72
2024/03/23 10:12:13;;;;;;;10.02;1.90;;;8.60;99.90;;;;;;5031360;28;20064;-70
2024/03/23 10:14:42;;;;;;;5.03;1.27;;;8.70;99.90;;;;;;5015350;28;20500;-71
2024/03/23 10:17:20;;;;;;;5.82;1.10;;;8.90;99.90;;;;;;5021384;28;20101;-70
2024/03/23 10:19:47;;;;;;;7.70;1.60;;;9.00;99.90;;;;;;5026220;28;20153;-70
2024/03/23 10:22:14;;;;;;;;;;;9.10;99.90;;;;;;5020626;28;20492;-70
2024/03/23 10:24:39;;;;;;;;;;;9.30;99.90;;;;;;5021639;28;19918;-72
2024/03/23 10:27:05;;;;;;;5.82;2.00;;;9.50;99.90;;;;;;5021241;28;19924;-72
2024/03/23 10:29:31;;;;;;;10.18;2.10;;;9.70;99.90;;;;;;5016924;28;20042;-72
2024/03/23 10:32:13;;;;;;;10.85;1.90;;;10.00;99.90;;;;;;5001052;28;20038;-71
2024/03/23 10:34:39;;;;;;;10.68;2.63;;;10.20;99.90;;;;;;4999678;28;20048;-71
2024/03/23 10:37:06;;;;;;;9.50;2.00;;;10.20;99.90;;;;;;5003760;28;20456;-72
2024/03/23 10:39:37;;;;;;;8.45;2.33;;;10.30;99.90;;;;;;5000504;28;20033;-72
2024/03/23 10:42:05;;;;;;;7.70;2.30;;;10.50;99.90;;;;;;5006489;28;20041;-71
2024/03/23 10:44:31;;;;;;;8.70;2.70;;;10.60;99.90;;;;;;5006452;28;20066;-71
2024/03/23 10:47:01;;;;;;;13.10;2.53;;;10.70;99.90;;;;;;4999075;28;21226;-71
2024/03/23 10:49:29;;;;;;;10.63;2.90;;;10.70;99.90;;;;;;4995605;28;20550;-71
2024/03/23 10:52:05;;;;;;;10.85;2.67;;;10.80;99.90;;;;;;4999179;28;20785;-72
2024/03/23 10:54:35;;;;;;;10.30;2.45;;;10.80;99.90;;;;;;5004766;28;20088;-71
2024/03/23 10:57:09;;;;;;;9.23;2.25;;;10.90;99.90;;;;;;5001115;28;20113;-71
2024/03/23 10:59:37;;;;;;;10.75;3.20;;;11.00;99.90;;;;;;5007371;28;20042;-71
2024/03/23 11:02:03;;;;;;;10.43;1.88;;;11.00;99.90;;;;;;5005112;28;20120;-71
2024/03/23 11:04:31;;;;;;;10.02;2.35;;;11.10;99.90;;;;;;5012960;28;20038;-70
2024/03/23 11:06:56;;;;;;;11.23;2.13;;;11.20;99.90;;;;;;5006807;28;20100;-71
2024/03/23 11:09:45;;;;;;;10.98;2.60;;;11.30;99.90;;;;;;5003343;28;20050;-71
2024/03/23 11:12:22;;;;;;;7.97;2.40;;;11.30;99.90;;;;;;5003144;28;20478;-72
2024/03/23 11:14:50;;;;;;;11.57;2.47;;;11.30;99.90;;;;;;5011357;28;20113;-71
2024/03/23 11:17:19;;;;;;;10.40;2.80;;;11.30;99.90;;;;;;4985483;28;20046;-71
2024/03/23 11:19:54;;;;;;;5.90;1.60;;;11.30;99.90;;;;;;5005203;28;20042;-71
2024/03/23 11:22:39;;;;;;;4.00;1.17;;;11.30;99.90;;;;;;5017741;28;20088;-71
2024/03/23 11:25:23;;;;;;;7.22;1.52;;;11.40;99.90;;;;;;5008343;28;20545;-71
2024/03/23 11:27:52;;;;;;;6.22;1.20;;;11.30;99.90;;;;;;5007796;28;20531;-71
2024/03/23 11:30:19;;;;;;;5.22;1.50;;;11.20;99.90;;;;;;5024778;28;20045;-71
2024/03/23 11:32:46;;;;;;;6.75;1.65;;;11.20;99.90;;;;;;5009453;28;20053;-71
2024/03/23 11:35:35;;;;;;;8.88;2.20;;;11.30;99.90;;;;;;5007486;28;20048;-71
2024/03/23 11:38:11;;;;;;;13.50;2.80;;;11.40;99.90;;;;;;5012141;28;20034;-73
2024/03/23 11:40:48;;;;;;;11.13;2.53;;;11.60;99.90;;;;;;5002063;28;20405;-72
2024/03/23 11:43:21;;;;;;;10.18;2.33;;;11.90;99.90;;;;;;4999834;28;20056;-71
2024/03/23 11:45:49;;;;;;;9.15;2.53;;;12.10;99.90;;;;;;4995669;28;20046;-72
2024/03/23 11:48:20;;;;;;;9.38;2.10;;;12.00;99.90;;;;;;4999129;28;20030;-71
2024/03/23 11:50:53;;;;;;;12.80;3.13;;;11.90;99.90;;;;;;5000317;28;20091;-71
2024/03/23 11:53:21;;;;;;;12.45;2.65;;;11.50;99.90;;;;;;4999496;28;20368;-71
2024/03/23 11:55:51;;;;;;;11.13;2.30;;;11.00;99.90;;;;;;5009883;28;20050;-71
2024/03/23 11:58:18;;;;;;;8.07;2.17;;;10.50;99.90;;;;;;5004219;28;20048;-71
2024/03/23 12:01:02;;;;;;;10.65;2.40;;;10.20;99.90;;;;;;5004999;28;20116;-71
2024/03/23 12:03:29;;;;;;;9.27;2.10;;;9.80;99.90;;;;;;4999342;28;20107;-71
2024/03/23 12:05:56;;;;;;;9.13;1.90;;;9.60;99.90;;;;;;4986943;28;20041;-72
2024/03/23 12:08:29;;;;;;;11.80;2.70;;;9.40;99.90;;;;;;4997659;28;20034;-73
2024/03/23 12:11:22;;;;;;;9.32;1.95;;;8.90;99.90;;;;;;4999200;28;20046;-73
2024/03/23 12:13:49;;;;;;;10.18;2.00;;;8.10;99.90;;;;;;4998349;28;20058;-73
2024/03/23 12:16:17;;;;;;;11.60;2.70;;;7.70;99.90;;;;;;4996284;28;20038;-73
2024/03/23 12:18:44;;;;;;;15.13;2.50;;;7.40;99.90;;;;;;4994787;28;20137;-72
2024/03/23 12:21:11;;;;;;;8.02;2.47;;;7.50;99.90;;;;;;5007286;28;20165;-72
2024/03/23 12:23:39;;;;;;;7.50;2.00;;;7.60;99.90;;;;;;5002064;28;20042;-72
2024/03/23 12:26:05;;;;;;;11.85;2.20;;;8.00;99.90;;;;;;5008468;28;20095;-73
2024/03/23 12:28:32;;;;;;;10.50;2.38;;;8.40;99.90;;;;;;5002995;28;20030;-72
2024/03/23 12:30:57;;;;;;;10.75;2.47;;;8.60;99.90;;;;;;5009703;28;20392;-73
2024/03/23 12:33:23;;;;;;;9.73;1.80;;;8.80;99.90;;;;;;5005304;28;20034;-72
2024/03/23 12:35:50;;;;;;;5.75;1.40;;;8.80;99.90;;;;;;5002283;28;20128;-74
2024/03/23 12:38:16;;;;;;;5.95;1.20;;;8.70;99.90;;;;;;5001660;28;20033;-73
2024/03/23 12:40:41;;;;;;;8.73;1.35;;;8.40;99.90;;;;;;4999656;28;20046;-72
2024/03/23 12:43:07;;;;;;;3.42;1.20;;;8.10;99.90;;;;;;4995510;28;20046;-72
2024/03/23 12:45:33;;;;;;;7.25;1.45;;;7.80;99.90;;;;;;4997674;28;20030;-72
2024/03/23 12:47:59;;;;;;;6.25;1.60;;;7.60;99.90;;;;;;4987248;28;20111;-72
2024/03/23 12:50:25;;;;;;;9.43;1.73;;;7.40;99.90;;;;;;5001128;28;20484;-72